Map

Track Data

SID SEASON NUMBER BASIN SUBBASIN NAME ISO_TIME NATURE LAT LON WMO_WIND WMO_PRES WMO_AGENCY TRACK_TYPE DIST2LAND LANDFALL IFLAG USA_AGENCY USA_ATCF_ID USA_LAT USA_LON USA_RECORD USA_STATUS USA_WIND USA_PRES USA_SSHS USA_R34_NE USA_R34_SE USA_R34_SW USA_R34_NW USA_R50_NE USA_R50_SE USA_R50_SW USA_R50_NW USA_R64_NE USA_R64_SE USA_R64_SW USA_R64_NW USA_POCI USA_ROCI USA_RMW USA_EYE TOKYO_LAT TOKYO_LON TOKYO_GRADE TOKYO_WIND TOKYO_PRES TOKYO_R50_DIR TOKYO_R50_LONG TOKYO_R50_SHORT TOKYO_R30_DIR TOKYO_R30_LONG TOKYO_R30_SHORT TOKYO_LAND CMA_LAT CMA_LON CMA_CAT CMA_WIND CMA_PRES HKO_LAT HKO_LON HKO_CAT HKO_WIND HKO_PRES NEWDELHI_LAT NEWDELHI_LON NEWDELHI_GRADE NEWDELHI_WIND NEWDELHI_PRES NEWDELHI_CI NEWDELHI_DP NEWDELHI_POCI REUNION_LAT REUNION_LON REUNION_TYPE REUNION_WIND REUNION_PRES REUNION_TNUM REUNION_CI REUNION_RMW REUNION_R34_NE REUNION_R34_SE REUNION_R34_SW REUNION_R34_NW REUNION_R50_NE REUNION_R50_SE REUNION_R50_SW REUNION_R50_NW REUNION_R64_NE REUNION_R64_SE REUNION_R64_SW REUNION_R64_NW BOM_LAT BOM_LON BOM_TYPE BOM_WIND BOM_PRES BOM_TNUM BOM_CI BOM_RMW BOM_R34_NE BOM_R34_SE BOM_R34_SW BOM_R34_NW BOM_R50_NE BOM_R50_SE BOM_R50_SW BOM_R50_NW BOM_R64_NE BOM_R64_SE BOM_R64_SW BOM_R64_NW BOM_ROCI BOM_POCI BOM_EYE BOM_POS_METHOD BOM_PRES_METHOD NADI_LAT NADI_LON NADI_CAT NADI_WIND NADI_PRES WELLINGTON_LAT WELLINGTON_LON WELLINGTON_WIND WELLINGTON_PRES DS824_LAT DS824_LON DS824_STAGE DS824_WIND DS824_PRES TD9636_LAT TD9636_LON TD9636_STAGE TD9636_WIND TD9636_PRES TD9635_LAT TD9635_LON TD9635_WIND TD9635_PRES TD9635_ROCI NEUMANN_LAT NEUMANN_LON NEUMANN_CLASS NEUMANN_WIND NEUMANN_PRES MLC_LAT MLC_LON MLC_CLASS MLC_WIND MLC_PRES USA_GUST BOM_GUST BOM_GUST_PER REUNION_GUST REUNION_GUST_PER USA_SEAHGT USA_SEARAD_NE USA_SEARAD_SE USA_SEARAD_SW USA_SEARAD_NW STORM_SPEED STORM_DIR
1929254S04079 1930 57 SI MM NOT_NAMED 1929-09-11 06:00:00 NR -4.10000 78.6000 reunion main 1142 1142 _____O________ -1 -4.10000 78.6000 99 9.90000 1 250
1929254S04079 1930 57 SI MM NOT_NAMED 1929-09-11 09:00:00 NR -4.11947 78.5385 main 1144 1144 _____P________ -1 -4.11947 78.5385 99 1 252
1929254S04079 1930 57 SI MM NOT_NAMED 1929-09-11 12:00:00 NR -4.14184 78.4686 main 1144 1144 _____P________ -1 -4.14184 78.4686 99 2 252
1929254S04079 1930 57 SI MM NOT_NAMED 1929-09-11 15:00:00 NR -4.17004 78.3818 main 1157 1157 _____P________ -1 -4.17004 78.3818 99 2 252
1929254S04079 1930 57 SI MM NOT_NAMED 1929-09-11 18:00:00 NR -4.20698 78.2697 main 1160 1160 _____P________ -1 -4.20698 78.2697 99 3 252
1929254S04079 1930 57 SI MM NOT_NAMED 1929-09-11 21:00:00 NR -4.25555 78.1240 main 1176 1176 _____P________ -1 -4.25555 78.1240 99 4 251
1929254S04079 1930 57 SI MM NOT_NAMED 1929-09-12 00:00:00 NR -4.31866 77.9361 main 1181 1181 _____P________ -1 -4.31866 77.9361 99 4 251
1929254S04079 1930 57 SI MM NOT_NAMED 1929-09-12 03:00:00 NR -4.39919 77.6976 main 1198 1198 _____P________ -1 -4.39919 77.6976 99 6 251
1929254S04079 1930 57 SI MM NOT_NAMED 1929-09-12 06:00:00 NR -4.50000 77.4000 reunion main 1218 1218 _____O________ -1 -4.50000 77.4000 99 9.90000 7 251
1929254S04079 1930 57 SI MM NOT_NAMED 1929-09-12 09:00:00 NR -4.62281 77.0378 main 1242 1242 _____P________ -1 -4.62281 77.0378 99 8 251
1929254S04079 1930 57 SI MM NOT_NAMED 1929-09-12 12:00:00 NR -4.76480 76.6173 main 1278 1278 _____P________ -1 -4.76480 76.6173 99 9 251
1929254S04079 1930 57 SI MM NOT_NAMED 1929-09-12 15:00:00 NR -4.92203 76.1481 main 1307 1307 _____P________ -1 -4.92203 76.1481 99 10 252
1929254S04079 1930 57 SI MM NOT_NAMED 1929-09-12 18:00:00 NR -5.09057 75.6395 main 1349 1349 _____P________ -1 -5.09057 75.6395 99 11 252
1929254S04079 1930 57 SI MM NOT_NAMED 1929-09-12 21:00:00 NR -5.26650 75.1010 main 1391 1391 _____P________ -1 -5.26650 75.1010 99 12 252
1929254S04079 1930 57 SI MM NOT_NAMED 1929-09-13 00:00:00 NR -5.44594 74.5419 main 1430 1430 _____P________ -1 -5.44594 74.5419 99 12 252
1929254S04079 1930 57 SI MM NOT_NAMED 1929-09-13 03:00:00 NR -5.62504 73.9718 main 1476 1476 _____P________ -1 -5.62504 73.9718 99 12 253
1929254S04079 1930 57 SI MM NOT_NAMED 1929-09-13 06:00:00 NR -5.80000 73.4000 reunion main 1528 1528 _____O________ -1 -5.80000 73.4000 99 9.90000 12 253
1929254S04079 1930 57 SI MM NOT_NAMED 1929-09-13 09:00:00 NR -5.96646 72.8251 main 1581 1581 _____P________ -1 -5.96646 72.8251 99 12 254
1929254S04079 1930 57 SI MM NOT_NAMED 1929-09-13 12:00:00 NR -6.13228 72.2363 main 1627 1627 _____P________ -1 -6.13228 72.2363 99 12 254
1929254S04079 1930 57 SI MM NOT_NAMED 1929-09-13 15:00:00 NR -6.29539 71.6440 main 1683 1683 _____P________ -1 -6.29539 71.6440 99 12 255
1929254S04079 1930 57 SI MM NOT_NAMED 1929-09-13 18:00:00 NR -6.45372 71.0587 main 1733 1733 _____P________ -1 -6.45372 71.0587 99 12 255
1929254S04079 1930 57 SI MM NOT_NAMED 1929-09-13 21:00:00 NR -6.60529 70.4911 main 1782 1782 _____P________ -1 -6.60529 70.4911 99 11 255
1929254S04079 1930 57 SI MM NOT_NAMED 1929-09-14 00:00:00 NR -6.74813 69.9517 main 1826 1826 _____P________ -1 -6.74813 69.9517 99 11 255
1929254S04079 1930 57 SI MM NOT_NAMED 1929-09-14 03:00:00 NR -6.88032 69.4511 main 1878 1878 _____P________ -1 -6.88032 69.4511 99 10 255
1929254S04079 1930 57 SI MM NOT_NAMED 1929-09-14 06:00:00 NR -7.00000 69.0000 reunion main 1907 1870 _____O________ -1 -7.00000 69.0000 99 9.90000 9 255
1929254S04079 1930 57 SI MM NOT_NAMED 1929-09-14 09:00:00 NR -7.10600 68.5980 main 1870 1841 _____P________ -1 -7.10600 68.5980 99 8 255
1929254S04079 1930 57 SI MM NOT_NAMED 1929-09-14 12:00:00 NR -7.20006 68.2406 main 1835 1806 _____P________ -1 -7.20006 68.2406 99 7 255
1929254S04079 1930 57 SI MM NOT_NAMED 1929-09-14 15:00:00 NR -7.28377 67.9254 main 1806 1784 _____P________ -1 -7.28377 67.9254 99 6 255
1929254S04079 1930 57 SI MM NOT_NAMED 1929-09-14 18:00:00 NR -7.35864 67.6500 main 1784 1764 _____P________ -1 -7.35864 67.6500 99 5 254
1929254S04079 1930 57 SI MM NOT_NAMED 1929-09-14 21:00:00 NR -7.42621 67.4122 main 1764 1743 _____P________ -1 -7.42621 67.4122 99 5 254
1929254S04079 1930 57 SI MM NOT_NAMED 1929-09-15 00:00:00 NR -7.48797 67.2094 main 1743 1730 _____P________ -1 -7.48797 67.2094 99 4 252
1929254S04079 1930 57 SI MM NOT_NAMED 1929-09-15 03:00:00 NR -7.54541 67.0395 main 1730 1714 _____P________ -1 -7.54541 67.0395 99 3 250
1929254S04079 1930 57 SI MM NOT_NAMED 1929-09-15 06:00:00 NR -7.60000 66.9000 reunion main 1714 1708 _____O________ -1 -7.60000 66.9000 99 9.90000 3 248
1929254S04079 1930 57 SI MM NOT_NAMED 1929-09-15 09:00:00 NR -7.65137 66.7804 main 1699 1693 _____P________ -1 -7.65137 66.7804 99 2 244
1929254S04079 1930 57 SI MM NOT_NAMED 1929-09-15 12:00:00 NR -7.69768 66.6979 main 1693 1687 _____P________ -1 -7.69768 66.6979 99 2 237
1929254S04079 1930 57 SI MM NOT_NAMED 1929-09-15 15:00:00 NR -7.74127 66.6438 main 1687 1677 _____P________ -1 -7.74127 66.6438 99 1 226
1929254S04079 1930 57 SI MM NOT_NAMED 1929-09-15 18:00:00 NR -7.78447 66.6096 main 1677 1677 _____P________ -1 -7.78447 66.6096 99 1 212
1929254S04079 1930 57 SI MM NOT_NAMED 1929-09-15 21:00:00 NR -7.82963 66.5868 main 1677 1668 _____P________ -1 -7.82963 66.5868 99 1 205
1929254S04079 1930 57 SI MM NOT_NAMED 1929-09-16 00:00:00 NR -7.87905 66.5666 main 1668 1662 _____P________ -1 -7.87905 66.5666 99 1 200
1929254S04079 1930 57 SI MM NOT_NAMED 1929-09-16 03:00:00 NR -7.93507 66.5406 main 1662 1653 _____P________ -1 -7.93507 66.5406 99 1 208
1929254S04079 1930 57 SI MM NOT_NAMED 1929-09-16 06:00:00 NR -8.00000 66.5000 reunion main 1653 1637 _____O________ -1 -8.00000 66.5000 99 9.90000 2 217
1929254S04079 1930 57 SI MM NOT_NAMED 1929-09-16 09:00:00 NR -8.07554 66.4382 main 1637 1628 _____P________ -1 -8.07554 66.4382 99 2 222
1929254S04079 1930 57 SI MM NOT_NAMED 1929-09-16 12:00:00 NR -8.16090 66.3562 main 1628 1622 _____P________ -1 -8.16090 66.3562 99 3 225
1929254S04079 1930 57 SI MM NOT_NAMED 1929-09-16 15:00:00 NR -8.25467 66.2569 main 1612 1600 _____P________ -1 -8.25467 66.2569 99 3 227
1929254S04079 1930 57 SI MM NOT_NAMED 1929-09-16 18:00:00 NR -8.35542 66.1430 main 1591 1575 _____P________ -1 -8.35542 66.1430 99 3 229
1929254S04079 1930 57 SI MM NOT_NAMED 1929-09-16 21:00:00 NR -8.46174 66.0175 main 1575 1560 _____P________ -1 -8.46174 66.0175 99 3 230
1929254S04079 1930 57 SI MM NOT_NAMED 1929-09-17 00:00:00 NR -8.57221 65.8832 main 1560 1545 _____P________ -1 -8.57221 65.8832 99 4 230
1929254S04079 1930 57 SI MM NOT_NAMED 1929-09-17 03:00:00 NR -8.68544 65.7431 main 1539 1523 _____P________ -1 -8.68544 65.7431 99 4 231
1929254S04079 1930 57 SI MM NOT_NAMED 1929-09-17 06:00:00 NR -8.80000 65.6000 reunion main 1523 _____O________ -1 -8.80000 65.6000 99 9.90000 4 231

About IBTrACS Database

This database is a web-friendly format of International Best Track Archive for Climate Stewardship (IBTrACS), a global best track data archive curated by NOAA dating back to 1842.

Updated: 2021-10-21